createdAt,value
2019-05-26T00:02:19.333Z,60.25
2019-05-26T00:07:30.679Z,60.39
2019-05-26T00:12:28.077Z,60.43
2019-05-26T00:17:31.474Z,60.24
2019-05-26T00:22:35.112Z,60.54
2019-05-26T00:27:38.514Z,60.71
2019-05-26T00:32:42.271Z,61.09
2019-05-26T00:37:49.691Z,60.96
2019-05-26T00:42:51.426Z,60.67
2019-05-26T00:47:55.165Z,60.79
2019-05-26T00:52:59.540Z,60.64
2019-05-26T00:58:03.037Z,60.43
2019-05-26T01:03:06.468Z,60.33
2019-05-26T01:08:10.049Z,60.60
2019-05-26T01:13:13.756Z,60.57
2019-05-26T01:18:17.155Z,60.62
2019-05-26T01:23:20.792Z,60.63
2019-05-26T01:28:24.195Z,60.92
2019-05-26T01:33:27.606Z,61.32
2019-05-26T01:38:31.742Z,61.58
2019-05-26T01:43:35.143Z,61.77
2019-05-26T01:48:38.902Z,61.84
2019-05-26T01:53:42.274Z,61.88
2019-05-26T01:58:45.668Z,62.36
2019-05-26T02:03:49.326Z,62.55
2019-05-26T02:08:52.725Z,62.41
2019-05-26T02:13:56.118Z,62.32
2019-05-26T02:18:59.508Z,62.28
2019-05-26T02:24:02.917Z,63.01
2019-05-26T02:29:06.549Z,63.00
2019-05-26T02:34:09.962Z,62.68
2019-05-26T02:39:13.349Z,62.68
2019-05-26T02:44:16.747Z,62.80
2019-05-26T02:49:20.142Z,62.69
2019-05-26T02:54:23.784Z,62.54
2019-05-26T02:59:27.182Z,62.71
2019-05-26T03:04:30.591Z,62.60
2019-05-26T03:09:36.793Z,62.63
2019-05-26T03:14:43.579Z,62.72
2019-05-26T03:19:49.180Z,62.68
2019-05-26T03:24:53.892Z,62.45
2019-05-26T03:29:57.522Z,62.37
2019-05-26T03:35:00.927Z,62.56
2019-05-26T03:40:07.061Z,62.96
2019-05-26T03:45:12.049Z,63.14
2019-05-26T03:50:15.772Z,63.64
2019-05-26T03:55:19.490Z,63.51
2019-05-26T04:00:24.355Z,63.51
2019-05-26T04:05:27.757Z,64.09
2019-05-26T04:10:31.433Z,64.41
2019-05-26T04:15:35.000Z,64.30
2019-05-26T04:20:38.714Z,64.41
2019-05-26T04:25:42.349Z,64.52
2019-05-26T04:30:45.752Z,64.84
2019-05-26T04:35:49.469Z,65.32
2019-05-26T04:40:53.200Z,66.18
2019-05-26T04:45:56.637Z,66.64
2019-05-26T04:51:00.039Z,66.64
2019-05-26T04:56:03.453Z,67.16
2019-05-26T05:01:06.911Z,67.53
2019-05-26T05:06:10.319Z,67.66
2019-05-26T05:11:13.718Z,68.09
2019-05-26T05:16:17.396Z,68.23
2019-05-26T05:21:20.801Z,67.98
2019-05-26T05:26:24.529Z,67.93
2019-05-26T05:31:27.985Z,67.16
2019-05-26T05:36:31.665Z,67.16
2019-05-26T05:41:35.297Z,66.66
2019-05-26T05:46:38.755Z,66.38
2019-05-26T05:51:42.250Z,66.14
2019-05-26T05:56:45.655Z,66.14
2019-05-26T06:01:49.061Z,65.89
2019-05-26T06:06:52.763Z,65.66
2019-05-26T06:11:57.161Z,65.82
2019-05-26T06:17:01.019Z,65.87
2019-05-26T06:22:05.066Z,65.67
2019-05-26T06:27:08.454Z,65.16
2019-05-26T06:32:12.177Z,65.12
2019-05-26T06:37:15.699Z,64.78
2019-05-26T06:42:19.427Z,64.46
2019-05-26T06:47:22.826Z,64.20
2019-05-26T06:52:26.467Z,64.22
2019-05-26T06:57:29.940Z,64.19
2019-05-26T07:02:33.342Z,63.73
2019-05-26T07:07:36.996Z,63.66
2019-05-26T07:12:40.731Z,63.44
2019-05-26T07:17:44.684Z,63.76
2019-05-26T07:22:48.084Z,63.77
2019-05-26T07:27:51.791Z,63.15
2019-05-26T07:32:55.479Z,62.86
2019-05-26T07:37:59.116Z,62.53
2019-05-26T07:43:02.754Z,61.33
2019-05-26T07:48:06.215Z,61.26
2019-05-26T07:53:09.657Z,61.36
2019-05-26T07:58:13.032Z,60.91
2019-05-26T08:03:16.442Z,60.15
2019-05-26T08:08:20.146Z,60.55
2019-05-26T08:13:23.764Z,60.46
2019-05-26T08:18:27.439Z,59.80
2019-05-26T08:23:31.136Z,58.59
2019-05-26T08:28:34.537Z,57.93
2019-05-26T08:33:37.935Z,56.62
2019-05-26T08:38:41.326Z,56.35
2019-05-26T08:43:44.981Z,55.00
2019-05-26T08:48:48.363Z,55.25
2019-05-26T08:53:51.998Z,55.80
2019-05-26T08:58:55.632Z,53.57
2019-05-26T09:03:59.285Z,52.48
2019-05-26T09:09:02.676Z,53.78
2019-05-26T09:14:06.072Z,50.74
2019-05-26T09:19:09.696Z,51.51
2019-05-26T09:24:13.140Z,50.49
2019-05-26T09:29:16.538Z,50.13
2019-05-26T09:34:19.928Z,49.52
2019-05-26T09:39:23.558Z,50.42
2019-05-26T09:44:27.187Z,51.09
2019-05-26T09:49:30.812Z,49.52
2019-05-26T09:54:34.206Z,47.42
2019-05-26T09:59:37.592Z,48.06
2019-05-26T10:04:40.980Z,46.27
2019-05-26T10:09:44.617Z,47.59
2019-05-26T10:14:48.264Z,46.71
2019-05-26T10:19:51.891Z,45.75
2019-05-26T10:24:55.279Z,44.93
2019-05-26T10:29:58.668Z,45.44
2019-05-26T10:35:02.412Z,45.49
2019-05-26T10:40:07.177Z,43.09
2019-05-26T10:45:11.219Z,43.85
2019-05-26T10:50:16.454Z,44.10
2019-05-26T10:55:19.856Z,42.76
2019-05-26T11:00:23.594Z,44.60
2019-05-26T11:05:27.313Z,45.23
2019-05-26T11:10:30.709Z,44.32
2019-05-26T11:15:34.641Z,45.67
2019-05-26T11:20:38.088Z,44.94
2019-05-26T11:25:42.317Z,42.58
2019-05-26T11:30:45.738Z,43.24
2019-05-26T11:35:49.424Z,43.83
2019-05-26T11:40:53.159Z,43.56
2019-05-26T11:45:56.838Z,43.24
2019-05-26T11:51:00.487Z,43.25
2019-05-26T11:56:03.944Z,43.80
2019-05-26T12:01:07.353Z,43.29
2019-05-26T12:06:10.744Z,41.16
2019-05-26T12:11:14.454Z,40.17
2019-05-26T12:16:17.849Z,38.97
2019-05-26T12:21:21.582Z,41.14
2019-05-26T12:26:25.033Z,39.08
2019-05-26T12:31:28.425Z,39.38
2019-05-26T12:36:32.074Z,39.33
2019-05-26T12:41:37.390Z,38.89
2019-05-26T12:46:40.584Z,39.00
2019-05-26T12:51:44.055Z,37.69
2019-05-26T12:56:47.443Z,36.55
2019-05-26T13:01:50.846Z,38.44
2019-05-26T13:06:54.560Z,37.20
2019-05-26T13:11:58.300Z,37.70
2019-05-26T13:17:01.871Z,37.04
2019-05-26T13:22:05.727Z,38.34
2019-05-26T13:27:09.370Z,39.65
2019-05-26T13:32:13.068Z,38.87
2019-05-26T13:37:16.467Z,37.59
2019-05-26T13:42:20.178Z,36.56
2019-05-26T13:47:26.535Z,37.32
2019-05-26T13:52:28.943Z,35.64
2019-05-26T13:57:32.597Z,36.16
2019-05-26T14:02:36.319Z,35.30
2019-05-26T14:07:39.945Z,36.94
2019-05-26T14:12:43.345Z,36.02
2019-05-26T14:17:46.929Z,37.83
2019-05-26T14:22:50.427Z,38.51
2019-05-26T14:27:54.101Z,37.09
2019-05-26T14:32:57.825Z,37.32
2019-05-26T14:38:01.221Z,39.40
2019-05-26T14:43:05.473Z,41.05
2019-05-26T14:48:09.206Z,39.31
2019-05-26T14:53:12.916Z,40.54
2019-05-26T14:58:16.893Z,41.12
2019-05-26T15:03:20.670Z,39.87
2019-05-26T15:08:24.116Z,40.70
2019-05-26T15:13:27.514Z,40.75
2019-05-26T15:18:30.950Z,39.73
2019-05-26T15:23:34.576Z,40.90
2019-05-26T15:28:37.970Z,40.51
2019-05-26T15:33:41.600Z,39.24
2019-05-26T15:38:44.996Z,38.05
2019-05-26T15:43:51.309Z,36.47
2019-05-26T15:48:54.704Z,36.47
2019-05-26T15:53:58.392Z,35.87
2019-05-26T15:59:02.081Z,37.35
2019-05-26T16:04:05.723Z,35.61
2019-05-26T16:09:09.109Z,37.00
2019-05-26T16:14:12.832Z,35.51
2019-05-26T16:19:16.566Z,34.77
2019-05-26T16:24:20.209Z,35.08
2019-05-26T16:29:23.602Z,34.73
2019-05-26T16:34:27.068Z,35.11
2019-05-26T16:39:36.977Z,35.15
2019-05-26T16:44:35.977Z,34.49
2019-05-26T16:49:39.654Z,35.65
2019-05-26T16:54:43.485Z,34.39
2019-05-26T16:59:47.204Z,34.26
2019-05-26T17:04:50.879Z,35.30
2019-05-26T17:09:54.252Z,35.37
2019-05-26T17:14:57.646Z,35.87
2019-05-26T17:20:01.121Z,35.79
2019-05-26T17:25:05.455Z,36.42
2019-05-26T17:30:09.786Z,36.72
2019-05-26T17:35:13.349Z,36.97
2019-05-26T17:40:17.460Z,37.35
2019-05-26T17:45:21.155Z,36.99
2019-05-26T17:50:24.692Z,37.31
2019-05-26T17:55:28.078Z,37.09
2019-05-26T18:00:31.499Z,36.80
2019-05-26T18:05:35.121Z,36.90
2019-05-26T18:10:38.513Z,36.83
2019-05-26T18:15:42.007Z,36.97
2019-05-26T18:20:45.757Z,37.41
2019-05-26T18:25:49.522Z,37.73
2019-05-26T18:30:52.916Z,39.09
2019-05-26T18:35:56.553Z,41.02
2019-05-26T18:41:00.273Z,43.21
2019-05-26T18:46:03.910Z,44.21
2019-05-26T18:51:07.306Z,44.55
2019-05-26T18:56:10.754Z,46.36
2019-05-26T19:01:14.190Z,48.24
2019-05-26T19:06:17.569Z,50.13
2019-05-26T19:11:20.998Z,51.01
2019-05-26T19:16:24.394Z,52.69
2019-05-26T19:21:27.836Z,53.53
2019-05-26T19:26:31.301Z,53.92
2019-05-26T19:31:34.698Z,54.05
2019-05-26T19:36:38.352Z,54.91
2019-05-26T19:41:41.753Z,55.60
2019-05-26T19:46:45.168Z,55.96
2019-05-26T19:51:48.922Z,56.48
2019-05-26T19:56:52.610Z,56.53
2019-05-26T20:01:56.230Z,56.92
2019-05-26T20:06:59.627Z,57.25
2019-05-26T20:12:03.365Z,57.36
2019-05-26T20:17:06.819Z,58.33
2019-05-26T20:22:10.219Z,58.84
2019-05-26T20:27:13.915Z,58.89
2019-05-26T20:32:17.638Z,58.06
2019-05-26T20:37:21.567Z,58.21
2019-05-26T20:42:24.931Z,59.03
2019-05-26T20:47:28.429Z,59.27
2019-05-26T20:52:31.884Z,58.99
2019-05-26T20:57:35.627Z,59.49
2019-05-26T21:02:39.351Z,59.52
2019-05-26T21:07:42.749Z,59.45
2019-05-26T21:12:46.214Z,59.48
2019-05-26T21:17:49.605Z,59.47
2019-05-26T21:22:53.314Z,60.11
2019-05-26T21:27:56.717Z,60.16
2019-05-26T21:33:00.114Z,59.82
2019-05-26T21:38:03.698Z,59.81
2019-05-26T21:43:07.380Z,60.08
2019-05-26T21:48:11.096Z,60.14
2019-05-26T21:53:14.727Z,59.88
2019-05-26T21:58:18.124Z,60.13
2019-05-26T22:03:21.888Z,61.19
2019-05-26T22:08:25.251Z,61.83
2019-05-26T22:13:28.943Z,62.30
2019-05-26T22:18:32.343Z,62.52
2019-05-26T22:23:35.740Z,62.85
2019-05-26T22:28:39.440Z,63.06
2019-05-26T22:33:42.832Z,63.22
2019-05-26T22:38:46.471Z,63.57
2019-05-26T22:43:50.152Z,63.71
2019-05-26T22:48:53.544Z,63.69
2019-05-26T22:53:57.172Z,63.84
2019-05-26T22:59:00.848Z,64.32
2019-05-26T23:04:04.578Z,63.89
2019-05-26T23:09:08.134Z,63.89
2019-05-26T23:14:11.806Z,63.06
2019-05-26T23:19:19.358Z,62.66
2019-05-26T23:24:20.933Z,62.21
2019-05-26T23:29:24.327Z,62.09
2019-05-26T23:34:27.726Z,63.04
2019-05-26T23:39:31.357Z,63.65
2019-05-26T23:44:35.052Z,63.34
2019-05-26T23:49:38.447Z,63.43
2019-05-26T23:54:42.185Z,63.70
2019-05-26T23:59:45.588Z,63.58
